createdAt,value
2023-02-24T00:00:32.447Z,10.87
2023-02-24T00:03:06.031Z,8.93
2023-02-24T00:05:39.839Z,6.13
2023-02-24T00:08:07.328Z,13.20
2023-02-24T00:10:37.546Z,7.07
2023-02-24T00:13:05.218Z,11.03
2023-02-24T00:15:32.681Z,6.87
2023-02-24T00:18:07.254Z,9.27
2023-02-24T00:20:34.891Z,8.77
2023-02-24T00:23:02.474Z,7.87
2023-02-24T00:25:29.881Z,13.70
2023-02-24T00:28:01.621Z,11.93
2023-02-24T00:30:31.565Z,9.27
2023-02-24T00:33:01.456Z,6.10
2023-02-24T00:35:31.905Z,13.13
2023-02-24T00:37:59.576Z,7.93
2023-02-24T00:40:26.995Z,7.43
2023-02-24T00:42:54.488Z,8.63
2023-02-24T00:45:22.121Z,6.43
2023-02-24T00:47:49.586Z,5.60
2023-02-24T00:50:17.468Z,7.00
2023-02-24T00:52:44.859Z,6.43
2023-02-24T00:55:15.166Z,12.37
2023-02-24T00:57:42.650Z,3.97
2023-02-24T01:00:15.311Z,9.27
2023-02-24T01:02:44.853Z,9.47
2023-02-24T01:05:13.124Z,11.00
2023-02-24T01:07:40.476Z,8.90
2023-02-24T01:10:08.836Z,7.50
2023-02-24T01:12:38.880Z,6.73
2023-02-24T01:15:10.123Z,5.50
2023-02-24T01:17:39.901Z,5.57
2023-02-24T01:20:16.776Z,7.87
2023-02-24T01:22:53.129Z,8.50
2023-02-24T01:25:20.767Z,8.07
2023-02-24T01:27:48.669Z,4.77
2023-02-24T01:30:16.546Z,9.43
2023-02-24T01:32:44.942Z,7.40
2023-02-24T01:35:14.575Z,20.60
2023-02-24T01:37:43.175Z,8.37
2023-02-24T01:40:21.106Z,10.20
2023-02-24T01:42:49.572Z,4.77
2023-02-24T01:45:25.516Z,7.30
2023-02-24T01:47:58.787Z,9.50
2023-02-24T01:50:27.103Z,7.07
2023-02-24T01:53:00.830Z,9.07
2023-02-24T01:55:43.529Z,10.17
2023-02-24T01:58:25.032Z,8.87
2023-02-24T02:00:52.996Z,11.20
2023-02-24T02:03:24.333Z,11.20
2023-02-24T02:05:56.408Z,4.77
2023-02-24T02:08:24.922Z,7.07
2023-02-24T02:10:59.027Z,10.07
2023-02-24T02:13:28.171Z,7.53
2023-02-24T02:16:26.097Z,9.23
2023-02-24T02:19:55.814Z,7.40
2023-02-24T02:22:51.770Z,4.53
2023-02-24T02:25:38.650Z,7.33
2023-02-24T02:28:12.145Z,7.43
2023-02-24T02:31:29.019Z,6.67
2023-02-24T02:34:28.871Z,12.53
2023-02-24T02:37:12.403Z,10.93
2023-02-24T02:39:46.682Z,7.60
2023-02-24T02:42:30.295Z,5.47
2023-02-24T02:45:51.836Z,7.50
2023-02-24T02:48:53.466Z,8.40
2023-02-24T02:51:29.930Z,5.93
2023-02-24T02:54:22.636Z,7.97
2023-02-24T02:57:14.276Z,6.43
2023-02-24T02:59:51.661Z,3.80
2023-02-24T03:02:28.632Z,8.37
2023-02-24T03:05:02.102Z,9.03
2023-02-24T03:07:41.304Z,5.57
2023-02-24T03:10:22.606Z,10.30
2023-02-24T03:12:57.681Z,5.77
2023-02-24T03:15:28.410Z,8.77
2023-02-24T03:18:10.541Z,6.97
2023-02-24T03:20:52.136Z,6.10
2023-02-24T03:23:27.469Z,6.03
2023-02-24T03:26:07.881Z,8.00
2023-02-24T03:28:52.891Z,11.23
2023-02-24T03:31:38.267Z,7.90
2023-02-24T03:34:31.937Z,10.53
2023-02-24T03:36:59.444Z,10.47
2023-02-24T03:39:26.901Z,8.67
2023-02-24T03:42:15.084Z,7.63
2023-02-24T03:44:42.796Z,9.97
2023-02-24T03:47:10.298Z,7.60
2023-02-24T03:49:38.537Z,4.77
2023-02-24T03:52:35.206Z,7.10
2023-02-24T03:55:22.098Z,6.70
2023-02-24T03:58:08.707Z,6.47
2023-02-24T04:00:58.904Z,7.27
2023-02-24T04:03:40.737Z,10.00
2023-02-24T04:06:45.626Z,8.40
2023-02-24T04:09:29.341Z,9.60
2023-02-24T04:12:18.827Z,7.10
2023-02-24T04:15:04.940Z,7.13
2023-02-24T04:18:04.499Z,5.97
2023-02-24T04:20:39.981Z,8.70
2023-02-24T04:23:16.984Z,6.87
2023-02-24T04:25:51.650Z,4.77
2023-02-24T04:28:24.732Z,5.90
2023-02-24T04:30:58.638Z,5.60
2023-02-24T04:33:26.252Z,5.27
2023-02-24T04:35:54.340Z,8.13
2023-02-24T04:38:23.513Z,5.73
2023-02-24T04:40:51.598Z,6.57
2023-02-24T04:43:19.533Z,4.93
2023-02-24T04:45:47.164Z,4.20
2023-02-24T04:48:16.995Z,6.90
2023-02-24T04:50:44.966Z,3.83
2023-02-24T04:53:17.440Z,5.53
2023-02-24T04:55:50.712Z,10.07
2023-02-24T04:58:21.465Z,6.43
2023-02-24T05:00:55.155Z,5.37
2023-02-24T05:03:28.212Z,6.40
2023-02-24T05:06:02.619Z,3.77
2023-02-24T05:08:31.273Z,7.90
2023-02-24T05:11:01.172Z,7.10
2023-02-24T05:13:31.634Z,5.20
2023-02-24T05:16:07.245Z,5.77
2023-02-24T05:18:38.276Z,4.13
2023-02-24T05:21:28.610Z,11.50
2023-02-24T05:23:58.391Z,6.40
2023-02-24T05:26:26.830Z,5.83
2023-02-24T05:28:56.680Z,4.03
2023-02-24T05:31:30.114Z,5.67
2023-02-24T05:34:02.907Z,6.23
2023-02-24T05:36:40.935Z,4.53
2023-02-24T05:39:12.393Z,5.73
2023-02-24T05:41:42.500Z,3.37
2023-02-24T05:44:23.538Z,4.20
2023-02-24T05:46:58.350Z,5.60
2023-02-24T05:49:31.436Z,6.17
2023-02-24T05:52:02.527Z,6.50
2023-02-24T05:54:33.173Z,4.50
2023-02-24T05:57:05.245Z,5.23
2023-02-24T05:59:33.663Z,5.60
2023-02-24T06:02:07.281Z,5.20
2023-02-24T06:04:41.087Z,5.07
2023-02-24T06:07:19.719Z,7.13
2023-02-24T06:09:57.311Z,6.70
2023-02-24T06:12:31.983Z,5.43
2023-02-24T06:15:00.562Z,10.27
2023-02-24T06:17:28.910Z,7.13
2023-02-24T06:19:56.461Z,5.87
2023-02-24T06:22:26.123Z,6.93
2023-02-24T06:24:56.906Z,7.13
2023-02-24T06:27:24.947Z,4.60
2023-02-24T06:29:54.609Z,5.03
2023-02-24T06:32:26.478Z,9.10
2023-02-24T06:34:54.543Z,6.00
2023-02-24T06:37:23.133Z,4.73
2023-02-24T06:39:50.872Z,4.87
2023-02-24T06:42:18.038Z,6.77
2023-02-24T06:44:45.318Z,6.20
2023-02-24T06:47:14.701Z,10.97
2023-02-24T06:49:43.102Z,7.17
2023-02-24T06:52:11.559Z,7.80
2023-02-24T06:54:38.892Z,6.83
2023-02-24T06:57:06.408Z,8.70
2023-02-24T06:59:34.280Z,7.80
2023-02-24T07:02:03.385Z,5.17
2023-02-24T07:04:31.109Z,4.40
2023-02-24T07:07:03.393Z,3.70
2023-02-24T07:09:32.106Z,9.00
2023-02-24T07:12:02.671Z,6.73
2023-02-24T07:14:31.490Z,7.07
2023-02-24T07:16:59.605Z,6.10
2023-02-24T07:19:32.379Z,5.63
2023-02-24T07:22:03.326Z,8.73
2023-02-24T07:24:39.264Z,5.13
2023-02-24T07:27:21.898Z,5.77
2023-02-24T07:29:52.677Z,7.87
2023-02-24T07:32:22.441Z,8.93
2023-02-24T07:34:49.770Z,6.87
2023-02-24T07:37:17.047Z,6.40
2023-02-24T07:39:44.171Z,6.87
2023-02-24T07:42:15.108Z,8.10
2023-02-24T07:44:46.673Z,9.17
2023-02-24T07:47:15.954Z,9.33
2023-02-24T07:49:43.773Z,7.60
2023-02-24T07:52:11.604Z,6.93
2023-02-24T07:54:39.267Z,7.10
2023-02-24T07:57:06.635Z,5.13
2023-02-24T07:59:38.010Z,8.43
2023-02-24T08:02:07.756Z,8.03
2023-02-24T08:04:36.303Z,9.10
2023-02-24T08:07:04.245Z,11.00
2023-02-24T08:09:46.254Z,9.40
2023-02-24T08:12:21.504Z,6.90
2023-02-24T08:14:52.800Z,8.37
2023-02-24T08:17:26.413Z,7.67
2023-02-24T08:20:14.544Z,8.17
2023-02-24T08:22:46.595Z,9.80
2023-02-24T08:25:19.006Z,9.90
2023-02-24T08:28:12.965Z,7.27
2023-02-24T08:30:47.232Z,6.77
2023-02-24T08:33:22.071Z,7.53
2023-02-24T08:36:01.423Z,6.80
2023-02-24T08:38:42.061Z,8.37
2023-02-24T08:41:18.262Z,6.57
2023-02-24T08:43:46.907Z,10.00
2023-02-24T08:46:19.560Z,11.63
2023-02-24T08:48:57.092Z,12.60
2023-02-24T08:51:34.848Z,7.90
2023-02-24T08:54:27.086Z,14.00
2023-02-24T08:56:56.542Z,9.10
2023-02-24T08:59:40.950Z,8.30
2023-02-24T09:02:18.936Z,11.63
2023-02-24T09:05:13.197Z,13.88
2023-02-24T09:07:42.134Z,12.23
2023-02-24T09:10:19.534Z,9.33
2023-02-24T09:12:48.992Z,9.90
2023-02-24T09:15:16.280Z,13.63
2023-02-24T09:17:45.229Z,10.20
2023-02-24T09:20:33.293Z,10.43
2023-02-24T09:23:07.745Z,10.60
2023-02-24T09:25:41.314Z,8.13
2023-02-24T09:28:18.627Z,11.23
2023-02-24T09:31:04.732Z,9.93
2023-02-24T09:33:39.077Z,10.07
2023-02-24T09:36:10.654Z,11.63
2023-02-24T09:38:59.938Z,11.77
2023-02-24T09:41:56.919Z,8.03
2023-02-24T09:44:26.395Z,7.83
2023-02-24T09:47:08.707Z,9.50
2023-02-24T09:49:50.216Z,9.17
2023-02-24T09:52:19.263Z,8.53
2023-02-24T09:55:10.705Z,7.33
2023-02-24T09:58:10.968Z,7.97
2023-02-24T10:00:44.191Z,8.70
2023-02-24T10:03:47.922Z,7.60
2023-02-24T10:06:26.813Z,9.40
2023-02-24T10:09:11.604Z,8.90
2023-02-24T10:11:54.638Z,6.70
2023-02-24T10:14:53.024Z,7.37
2023-02-24T10:17:40.208Z,7.53
2023-02-24T10:20:31.050Z,8.20
2023-02-24T10:23:32.820Z,9.77
2023-02-24T10:26:09.856Z,9.97
2023-02-24T10:28:58.295Z,12.03
2023-02-24T10:31:45.892Z,8.23
2023-02-24T10:34:25.287Z,7.60
2023-02-24T10:36:53.449Z,10.40
2023-02-24T10:39:25.788Z,7.80
2023-02-24T10:42:19.620Z,8.17
2023-02-24T10:45:02.546Z,7.97
2023-02-24T10:47:31.569Z,8.97
2023-02-24T10:50:02.744Z,8.87
2023-02-24T10:52:57.390Z,11.30
2023-02-24T10:55:53.431Z,8.57
2023-02-24T10:58:28.929Z,8.10
2023-02-24T11:01:07.649Z,7.80
2023-02-24T11:03:43.702Z,6.97
2023-02-24T11:06:34.718Z,10.27
2023-02-24T11:09:20.513Z,7.13
2023-02-24T11:12:07.066Z,8.43
2023-02-24T11:15:08.064Z,9.87
2023-02-24T11:17:37.715Z,7.27
2023-02-24T11:20:15.810Z,7.90
2023-02-24T11:22:45.794Z,8.17
2023-02-24T11:25:46.006Z,7.70
2023-02-24T11:28:51.546Z,7.03
2023-02-24T11:31:42.656Z,8.00
2023-02-24T11:35:05.723Z,8.70
2023-02-24T11:37:43.350Z,7.23
2023-02-24T11:40:25.350Z,8.83
2023-02-24T11:43:18.465Z,8.93
2023-02-24T11:45:55.698Z,7.57
2023-02-24T11:48:43.732Z,7.73
2023-02-24T11:51:16.844Z,7.27
2023-02-24T11:54:16.099Z,7.30
2023-02-24T11:56:47.278Z,8.47
2023-02-24T11:59:27.361Z,7.87
2023-02-24T12:02:14.398Z,8.00
2023-02-24T12:04:58.999Z,7.87
2023-02-24T12:07:39.063Z,9.30
2023-02-24T12:10:17.758Z,7.47
2023-02-24T12:12:53.975Z,6.60
2023-02-24T12:15:30.774Z,9.37
2023-02-24T12:18:25.532Z,6.90
2023-02-24T12:21:07.094Z,7.50
2023-02-24T12:23:39.311Z,5.80
2023-02-24T12:26:42.536Z,6.50
2023-02-24T12:29:42.737Z,6.30
2023-02-24T12:32:42.930Z,6.63
2023-02-24T12:35:44.454Z,8.83
2023-02-24T12:39:00.378Z,7.17
2023-02-24T12:41:42.274Z,11.23
2023-02-24T12:44:35.460Z,10.23
2023-02-24T12:47:27.050Z,9.93
2023-02-24T12:50:09.228Z,9.57
2023-02-24T12:53:16.929Z,11.67
2023-02-24T12:56:07.700Z,9.17
2023-02-24T12:58:38.952Z,11.10
2023-02-24T13:01:29.694Z,8.73
2023-02-24T13:04:23.028Z,11.50
2023-02-24T13:07:30.514Z,9.60
2023-02-24T13:10:32.866Z,11.83
2023-02-24T13:13:18.632Z,9.97
2023-02-24T13:15:58.299Z,12.43
2023-02-24T13:18:35.118Z,10.80
2023-02-24T13:21:15.270Z,11.07
2023-02-24T13:23:53.208Z,11.10
2023-02-24T13:26:25.033Z,11.33
2023-02-24T13:29:09.427Z,10.53
2023-02-24T13:31:51.745Z,11.53
2023-02-24T13:34:21.879Z,11.27
2023-02-24T13:36:50.793Z,10.27
2023-02-24T13:39:41.437Z,14.30
2023-02-24T13:42:32.136Z,16.30
2023-02-24T13:45:19.550Z,11.77
2023-02-24T13:48:20.862Z,13.07
2023-02-24T13:51:05.358Z,12.33
2023-02-24T13:54:15.368Z,12.60
2023-02-24T13:56:53.818Z,14.97
2023-02-24T13:59:58.019Z,17.23
2023-02-24T14:02:34.204Z,13.27
2023-02-24T14:05:10.018Z,16.33
2023-02-24T14:07:39.735Z,14.30
2023-02-24T14:10:21.197Z,11.57
2023-02-24T14:12:50.370Z,14.80
2023-02-24T14:15:25.976Z,13.37
2023-02-24T14:18:04.233Z,11.97
2023-02-24T14:20:37.974Z,12.20
2023-02-24T14:23:27.134Z,12.43
2023-02-24T14:26:04.512Z,15.33
2023-02-24T14:28:36.411Z,13.33
2023-02-24T14:31:14.778Z,14.03
2023-02-24T14:33:44.589Z,14.93
2023-02-24T14:36:24.295Z,19.90
2023-02-24T14:39:16.009Z,14.33
2023-02-24T14:41:47.685Z,15.27
2023-02-24T14:44:28.429Z,15.17
2023-02-24T14:47:00.102Z,19.73
2023-02-24T14:49:33.941Z,15.03
2023-02-24T14:52:09.622Z,18.30
2023-02-24T14:55:13.604Z,19.90
2023-02-24T14:57:59.921Z,19.17
2023-02-24T15:00:35.760Z,21.07
2023-02-24T15:03:29.742Z,17.73
2023-02-24T15:06:01.633Z,16.47
2023-02-24T15:08:38.105Z,17.03
2023-02-24T15:11:21.793Z,18.83
2023-02-24T15:13:56.663Z,19.27
2023-02-24T15:16:41.981Z,15.97
2023-02-24T15:19:47.224Z,12.57
2023-02-24T15:22:28.812Z,16.73
2023-02-24T15:25:46.882Z,16.30
2023-02-24T15:28:26.121Z,15.17
2023-02-24T15:31:10.944Z,15.73
2023-02-24T15:33:46.558Z,15.40
2023-02-24T15:36:31.488Z,15.13
2023-02-24T15:39:06.789Z,14.87
2023-02-24T15:41:54.566Z,18.37
2023-02-24T15:44:31.947Z,15.63
2023-02-24T15:47:01.343Z,15.27
2023-02-24T15:49:28.638Z,18.97
2023-02-24T15:51:59.610Z,20.93
2023-02-24T15:54:35.089Z,19.63
2023-02-24T15:57:05.354Z,20.00
2023-02-24T15:59:32.559Z,20.67
2023-02-24T16:01:59.701Z,19.47
2023-02-24T16:04:27.800Z,23.03
2023-02-24T16:06:57.630Z,20.90
2023-02-24T16:09:38.956Z,21.97
2023-02-24T16:12:12.503Z,22.00
2023-02-24T16:14:40.358Z,22.60
2023-02-24T16:17:22.067Z,26.90
2023-02-24T16:19:49.632Z,23.07
2023-02-24T16:22:17.080Z,22.50
2023-02-24T16:24:44.397Z,19.90
2023-02-24T16:27:18.046Z,22.17
2023-02-24T16:29:45.767Z,20.33
2023-02-24T16:32:14.096Z,19.30
2023-02-24T16:34:41.796Z,24.83
2023-02-24T16:37:22.661Z,23.60
2023-02-24T16:39:50.010Z,22.60
2023-02-24T16:42:18.941Z,20.23
2023-02-24T16:44:49.769Z,14.87
2023-02-24T16:47:22.844Z,19.43
2023-02-24T16:49:51.547Z,20.07
2023-02-24T16:52:20.615Z,16.13
2023-02-24T16:54:48.256Z,16.33
2023-02-24T16:57:16.069Z,14.53
2023-02-24T16:59:44.278Z,13.30
2023-02-24T17:02:22.039Z,9.43
2023-02-24T17:04:49.332Z,10.17
2023-02-24T17:07:19.010Z,12.87
2023-02-24T17:09:46.093Z,11.23
2023-02-24T17:12:21.877Z,8.93
2023-02-24T17:14:49.296Z,9.80
2023-02-24T17:17:16.380Z,12.73
2023-02-24T17:19:43.518Z,7.93
2023-02-24T17:22:10.605Z,8.40
2023-02-24T17:24:37.826Z,8.00
2023-02-24T17:27:04.955Z,10.97
2023-02-24T17:29:32.046Z,5.60
2023-02-24T17:31:59.533Z,4.60
2023-02-24T17:34:27.356Z,2.80
2023-02-24T17:36:54.469Z,2.17
2023-02-24T17:39:21.556Z,4.27
2023-02-24T17:41:48.615Z,4.73
2023-02-24T17:44:15.732Z,6.43
2023-02-24T17:46:43.032Z,5.83
2023-02-24T17:49:10.157Z,6.17
2023-02-24T17:51:37.197Z,6.63
2023-02-24T17:54:04.432Z,5.87
2023-02-24T17:56:31.642Z,8.13
2023-02-24T17:59:00.955Z,7.67
2023-02-24T18:01:28.675Z,7.50
2023-02-24T18:03:58.767Z,8.23
2023-02-24T18:06:26.062Z,10.43
2023-02-24T18:08:53.187Z,8.30
2023-02-24T18:11:20.726Z,11.27
2023-02-24T18:13:50.867Z,8.53
2023-02-24T18:16:18.303Z,8.93
2023-02-24T18:18:45.558Z,8.67
2023-02-24T18:21:12.982Z,7.97
2023-02-24T18:23:40.674Z,9.67
2023-02-24T18:26:10.908Z,9.27
2023-02-24T18:28:38.831Z,12.03
2023-02-24T18:31:18.662Z,10.30
2023-02-24T18:33:46.412Z,10.40
2023-02-24T18:36:14.384Z,11.67
2023-02-24T18:38:41.723Z,8.03
2023-02-24T18:41:15.616Z,7.20
2023-02-24T18:43:43.474Z,10.83
2023-02-24T18:46:15.595Z,13.10
2023-02-24T18:48:46.757Z,8.70
2023-02-24T18:51:17.943Z,10.27
2023-02-24T18:53:45.833Z,12.80
2023-02-24T18:56:23.811Z,8.23
2023-02-24T18:58:52.960Z,8.03
2023-02-24T19:01:36.598Z,8.43
2023-02-24T19:04:05.276Z,8.33
2023-02-24T19:06:34.251Z,4.00
2023-02-24T19:09:09.701Z,5.10
2023-02-24T19:11:39.033Z,6.33
2023-02-24T19:14:07.999Z,3.47
2023-02-24T19:16:36.316Z,3.10
2023-02-24T19:19:03.970Z,6.33
2023-02-24T19:21:33.518Z,2.90
2023-02-24T19:24:08.040Z,6.27
2023-02-24T19:26:35.593Z,2.80
2023-02-24T19:29:04.955Z,3.33
2023-02-24T19:31:34.106Z,3.93
2023-02-24T19:34:07.290Z,5.27
2023-02-24T19:36:36.419Z,6.10
2023-02-24T19:39:05.947Z,5.50
2023-02-24T19:41:33.554Z,3.03
2023-02-24T19:44:01.026Z,6.37
2023-02-24T19:46:33.173Z,8.70
2023-02-24T19:49:04.460Z,7.23
2023-02-24T19:51:31.850Z,5.37
2023-02-24T19:54:06.137Z,5.13
2023-02-24T19:56:36.959Z,3.87
2023-02-24T19:59:07.156Z,3.23
2023-02-24T20:01:34.396Z,3.57
2023-02-24T20:04:03.268Z,2.67
2023-02-24T20:06:40.064Z,4.63
2023-02-24T20:09:15.442Z,2.13
2023-02-24T20:11:45.043Z,3.37
2023-02-24T20:14:14.285Z,3.67
2023-02-24T20:16:43.581Z,1.93
2023-02-24T20:19:12.508Z,2.60
2023-02-24T20:21:40.499Z,2.77
2023-02-24T20:24:13.867Z,3.83
2023-02-24T20:26:43.383Z,3.70
2023-02-24T20:29:11.423Z,2.80
2023-02-24T20:31:39.708Z,4.30
2023-02-24T20:34:08.944Z,2.80
2023-02-24T20:36:36.749Z,4.80
2023-02-24T20:39:06.774Z,3.27
2023-02-24T20:41:34.789Z,5.43
2023-02-24T20:44:03.229Z,3.20
2023-02-24T20:46:32.106Z,2.83
2023-02-24T20:49:06.309Z,3.10
2023-02-24T20:51:37.204Z,2.57
2023-02-24T20:54:06.569Z,3.93
2023-02-24T20:56:36.686Z,5.33
2023-02-24T20:59:06.953Z,4.20
2023-02-24T21:01:35.049Z,4.40
2023-02-24T21:04:03.440Z,4.50
2023-02-24T21:06:30.866Z,3.07
2023-02-24T21:08:58.553Z,3.20
2023-02-24T21:11:26.814Z,5.10
2023-02-24T21:13:54.042Z,3.30
2023-02-24T21:16:22.421Z,7.00
2023-02-24T21:18:53.123Z,5.63
2023-02-24T21:21:21.021Z,1.73
2023-02-24T21:23:48.479Z,2.97
2023-02-24T21:26:15.973Z,3.63
2023-02-24T21:28:43.111Z,3.80
2023-02-24T21:31:19.038Z,5.00
2023-02-24T21:33:51.756Z,3.43
2023-02-24T21:36:21.535Z,5.13
2023-02-24T21:38:49.428Z,2.37
2023-02-24T21:41:19.296Z,5.00
2023-02-24T21:43:48.212Z,5.03
2023-02-24T21:46:18.174Z,5.20
2023-02-24T21:48:45.876Z,5.53
2023-02-24T21:51:14.458Z,4.13
2023-02-24T21:53:44.567Z,7.93
2023-02-24T21:56:18.314Z,2.57
2023-02-24T21:58:53.768Z,5.27
2023-02-24T22:01:25.528Z,3.47
2023-02-24T22:03:58.797Z,2.70
2023-02-24T22:06:31.309Z,5.17
2023-02-24T22:09:00.519Z,2.70
2023-02-24T22:11:35.071Z,5.93
2023-02-24T22:14:02.554Z,3.57
2023-02-24T22:16:30.205Z,6.17
2023-02-24T22:18:57.614Z,4.77
2023-02-24T22:21:28.965Z,4.10
2023-02-24T22:23:59.772Z,4.67
2023-02-24T22:26:29.390Z,3.87
2023-02-24T22:28:57.266Z,5.33
2023-02-24T22:31:31.611Z,3.33
2023-02-24T22:33:59.788Z,2.70
2023-02-24T22:36:33.870Z,3.80
2023-02-24T22:39:02.305Z,4.47
2023-02-24T22:41:35.178Z,7.90
2023-02-24T22:44:06.639Z,4.27
2023-02-24T22:46:37.664Z,5.77
2023-02-24T22:49:06.483Z,3.63
2023-02-24T22:51:33.883Z,5.87
2023-02-24T22:54:01.046Z,4.97
2023-02-24T22:56:30.176Z,10.60
2023-02-24T22:59:00.539Z,7.50
2023-02-24T23:01:38.316Z,11.87
2023-02-24T23:04:10.982Z,3.13
2023-02-24T23:06:38.193Z,6.80
2023-02-24T23:09:06.570Z,5.20
2023-02-24T23:11:40.845Z,5.97
2023-02-24T23:14:13.885Z,3.87
2023-02-24T23:16:44.324Z,4.50
2023-02-24T23:19:18.747Z,5.93
2023-02-24T23:21:50.047Z,6.33
2023-02-24T23:24:18.969Z,2.87
2023-02-24T23:26:57.495Z,5.67
2023-02-24T23:29:26.551Z,4.43
2023-02-24T23:31:53.881Z,7.33
2023-02-24T23:34:21.269Z,4.00
2023-02-24T23:36:48.747Z,4.43
2023-02-24T23:39:21.382Z,2.33
2023-02-24T23:41:49.427Z,3.77
2023-02-24T23:44:16.501Z,1.60
2023-02-24T23:46:43.886Z,2.53
2023-02-24T23:49:11.466Z,2.73
2023-02-24T23:51:48.162Z,5.23
2023-02-24T23:54:17.835Z,3.90
2023-02-24T23:56:45.331Z,5.07
2023-02-24T23:59:12.516Z,6.53
